EGPH

Edinburgh Airport

Edinburgh, United Kingdom
TAF EGPH 210455Z 2106/2206 24005KT 9999 SCT025 TEMPO 2106/2109 BKN009 BECMG 2200/2203 BKN008 TEMPO 2200/2206 6000 -RA
Issued Valid From Valid To
Jul-21 @ 04:55 UTC
(5 hours ago)
Jul-21 @ 06:00 UTC
(4 hours ago)
Jul-22 @ 06:00 UTC
(in 20 hours)
Jul-21 @ 06:00 to Jul-22 @ 00:00
TAF EGPH 210455Z 2106/2206 24005KT 9999 SCT025
Wind Visibility Clouds
240° at 5 knots 10,000+ meters
  • Scattered at 2,500' AGL
Expired Click to View Jul-21 @ 06:00 to Jul-21 @ 09:00
TEMPO 2106/2109 BKN009
Clouds
  • Broken at 900' AGL
Becoming Jul-22 @ 00:00 to Jul-22 @ 06:00
BECMG 2200/2203 BKN008
Wind Visibility Clouds
240° at 5 knots 10,000+ meters
  • Broken at 800' AGL
Temporary Jul-22 @ 00:00 to Jul-22 @ 06:00
TEMPO 2200/2206 6000 -RA
Visibility Conditions
6,003 meters
  • Light Rain
TAF EGPH 210455Z 2106/2206 24005KT 9999 SCT025 TEMPO 2106/2109 BKN009 BECMG 2200/2203 BKN008 TEMPO 2200/2206 6000 -RA
Issued Jul-21 @ 04:55 UTC
(5 hours ago)
Valid From Jul-21 @ 06:00 UTC
(4 hours ago)
Valid To Jul-22 @ 06:00 UTC
(in 20 hours)
Jul-21 @ 06:00 - Jul-22 @ 00:00
Wind Visibility
240° at 5 knots 10,000+ meters
Clouds
  • Scattered at 2,500' AGL
Jul-21 @ 06:00 - Jul-21 @ 09:00
Clouds
  • Broken at 900' AGL
Becoming Jul-22 @ 00:00 - Jul-22 @ 06:00
Wind Visibility
240° at 5 knots 10,000+ meters
Clouds
  • Broken at 800' AGL
Temporary Jul-22 @ 00:00 - Jul-22 @ 06:00
Conditions
  • Light Rain